sensor_id;sensor_type;location;lat;lon;timestamp;temperature;humidity
831;DHT22;397;50.564;7.272;2023-04-25T00:01:27;9.30;99.90
831;DHT22;397;50.564;7.272;2023-04-25T00:03:54;9.30;99.90
831;DHT22;397;50.564;7.272;2023-04-25T00:06:23;9.40;99.90
831;DHT22;397;50.564;7.272;2023-04-25T00:08:53;9.40;99.90
831;DHT22;397;50.564;7.272;2023-04-25T00:11:22;9.30;99.90
831;DHT22;397;50.564;7.272;2023-04-25T00:13:50;9.20;99.90
831;DHT22;397;50.564;7.272;2023-04-25T00:16:17;9.20;99.90
831;DHT22;397;50.564;7.272;2023-04-25T00:18:45;9.20;99.90
831;DHT22;397;50.564;7.272;2023-04-25T00:21:14;9.10;99.90
831;DHT22;397;50.564;7.272;2023-04-25T00:23:44;9.10;99.90
831;DHT22;397;50.564;7.272;2023-04-25T00:26:12;9.10;99.90
831;DHT22;397;50.564;7.272;2023-04-25T00:28:40;9.10;99.90
831;DHT22;397;50.564;7.272;2023-04-25T00:31:07;9.10;99.90
831;DHT22;397;50.564;7.272;2023-04-25T00:33:35;9.10;99.90
831;DHT22;397;50.564;7.272;2023-04-25T00:36:03;9.00;99.90
831;DHT22;397;50.564;7.272;2023-04-25T00:38:30;8.90;99.90
831;DHT22;397;50.564;7.272;2023-04-25T00:40:58;8.90;99.90
831;DHT22;397;50.564;7.272;2023-04-25T00:43:26;8.80;99.90
831;DHT22;397;50.564;7.272;2023-04-25T00:45:54;8.60;99.90
831;DHT22;397;50.564;7.272;2023-04-25T00:48:24;8.60;99.90
831;DHT22;397;50.564;7.272;2023-04-25T00:50:58;8.50;99.90
831;DHT22;397;50.564;7.272;2023-04-25T00:53:27;8.50;99.90
831;DHT22;397;50.564;7.272;2023-04-25T00:55:55;8.40;99.90
831;DHT22;397;50.564;7.272;2023-04-25T00:58:23;8.30;99.90
831;DHT22;397;50.564;7.272;2023-04-25T01:00:52;8.20;99.90
831;DHT22;397;50.564;7.272;2023-04-25T01:03:21;8.30;99.90
831;DHT22;397;50.564;7.272;2023-04-25T01:59:31;7.20;99.90
831;DHT22;397;50.564;7.272;2023-04-25T02:02:01;7.30;99.90
831;DHT22;397;50.564;7.272;2023-04-25T02:04:30;7.30;99.90
831;DHT22;397;50.564;7.272;2023-04-25T02:06:58;7.20;99.90
831;DHT22;397;50.564;7.272;2023-04-25T02:09:26;7.20;99.90
831;DHT22;397;50.564;7.272;2023-04-25T02:11:53;7.20;99.90
831;DHT22;397;50.564;7.272;2023-04-25T02:14:21;7.10;99.90
831;DHT22;397;50.564;7.272;2023-04-25T02:16:48;7.10;99.90
831;DHT22;397;50.564;7.272;2023-04-25T02:19:17;7.00;99.90
831;DHT22;397;50.564;7.272;2023-04-25T02:21:45;7.10;99.90
831;DHT22;397;50.564;7.272;2023-04-25T02:24:12;7.10;99.90
831;DHT22;397;50.564;7.272;2023-04-25T02:26:40;7.10;99.90
831;DHT22;397;50.564;7.272;2023-04-25T02:29:07;7.10;99.90
831;DHT22;397;50.564;7.272;2023-04-25T02:31:35;7.00;99.90
831;DHT22;397;50.564;7.272;2023-04-25T02:34:02;6.90;99.90
831;DHT22;397;50.564;7.272;2023-04-25T02:36:30;6.90;99.90
831;DHT22;397;50.564;7.272;2023-04-25T02:39:00;6.90;99.90
831;DHT22;397;50.564;7.272;2023-04-25T02:41:29;6.90;99.90
831;DHT22;397;50.564;7.272;2023-04-25T02:43:56;7.00;99.90
831;DHT22;397;50.564;7.272;2023-04-25T02:46:24;7.00;99.90
831;DHT22;397;50.564;7.272;2023-04-25T02:48:51;6.90;99.90
831;DHT22;397;50.564;7.272;2023-04-25T02:51:19;6.90;99.90
831;DHT22;397;50.564;7.272;2023-04-25T02:53:46;6.90;99.90
831;DHT22;397;50.564;7.272;2023-04-25T02:56:14;6.90;99.90
831;DHT22;397;50.564;7.272;2023-04-25T02:58:42;6.90;99.90
831;DHT22;397;50.564;7.272;2023-04-25T03:01:09;6.90;99.90
831;DHT22;397;50.564;7.272;2023-04-25T03:03:37;6.90;99.90
831;DHT22;397;50.564;7.272;2023-04-25T03:06:05;7.00;99.90
831;DHT22;397;50.564;7.272;2023-04-25T03:08:32;7.10;99.90
831;DHT22;397;50.564;7.272;2023-04-25T03:11:00;7.10;99.90
831;DHT22;397;50.564;7.272;2023-04-25T03:13:28;7.10;99.90
831;DHT22;397;50.564;7.272;2023-04-25T03:15:56;7.10;99.90
831;DHT22;397;50.564;7.272;2023-04-25T03:18:24;7.20;99.90
831;DHT22;397;50.564;7.272;2023-04-25T03:20:51;7.20;99.90
831;DHT22;397;50.564;7.272;2023-04-25T03:23:19;7.30;99.90
831;DHT22;397;50.564;7.272;2023-04-25T03:25:46;7.20;99.90
831;DHT22;397;50.564;7.272;2023-04-25T03:28:14;7.30;99.90
831;DHT22;397;50.564;7.272;2023-04-25T03:30:41;7.30;99.90
831;DHT22;397;50.564;7.272;2023-04-25T03:33:09;7.30;99.90
831;DHT22;397;50.564;7.272;2023-04-25T03:35:36;7.30;99.90
831;DHT22;397;50.564;7.272;2023-04-25T03:38:04;7.20;99.90
831;DHT22;397;50.564;7.272;2023-04-25T03:40:31;7.20;99.90
831;DHT22;397;50.564;7.272;2023-04-25T03:42:59;7.20;99.90
831;DHT22;397;50.564;7.272;2023-04-25T03:45:26;7.20;99.90
831;DHT22;397;50.564;7.272;2023-04-25T03:47:54;7.20;99.90
831;DHT22;397;50.564;7.272;2023-04-25T03:50:21;7.20;99.90
831;DHT22;397;50.564;7.272;2023-04-25T03:52:49;7.20;99.90
831;DHT22;397;50.564;7.272;2023-04-25T03:55:16;7.20;99.90
831;DHT22;397;50.564;7.272;2023-04-25T03:57:44;7.20;99.90
831;DHT22;397;50.564;7.272;2023-04-25T04:00:12;7.10;99.90
831;DHT22;397;50.564;7.272;2023-04-25T04:02:40;7.10;99.90
831;DHT22;397;50.564;7.272;2023-04-25T04:05:08;7.10;99.90
831;DHT22;397;50.564;7.272;2023-04-25T04:07:35;7.10;99.90
831;DHT22;397;50.564;7.272;2023-04-25T04:10:12;7.10;99.90
831;DHT22;397;50.564;7.272;2023-04-25T04:12:40;7.20;99.90
831;DHT22;397;50.564;7.272;2023-04-25T04:15:08;7.20;99.90
831;DHT22;397;50.564;7.272;2023-04-25T04:17:36;7.30;99.90
831;DHT22;397;50.564;7.272;2023-04-25T04:20:04;7.30;99.90
831;DHT22;397;50.564;7.272;2023-04-25T04:22:32;7.30;99.90
831;DHT22;397;50.564;7.272;2023-04-25T04:25:00;7.30;99.90
831;DHT22;397;50.564;7.272;2023-04-25T04:27:28;7.30;99.90
831;DHT22;397;50.564;7.272;2023-04-25T04:29:56;7.40;99.90
831;DHT22;397;50.564;7.272;2023-04-25T04:32:24;7.50;99.90
831;DHT22;397;50.564;7.272;2023-04-25T04:34:51;7.60;99.90
831;DHT22;397;50.564;7.272;2023-04-25T04:37:21;7.60;99.90
831;DHT22;397;50.564;7.272;2023-04-25T04:39:49;7.70;99.90
831;DHT22;397;50.564;7.272;2023-04-25T04:42:16;7.70;99.90
831;DHT22;397;50.564;7.272;2023-04-25T04:44:44;7.70;99.90
831;DHT22;397;50.564;7.272;2023-04-25T04:47:11;7.70;99.90
831;DHT22;397;50.564;7.272;2023-04-25T04:49:40;7.80;99.90
831;DHT22;397;50.564;7.272;2023-04-25T04:52:08;7.90;99.90
831;DHT22;397;50.564;7.272;2023-04-25T04:54:35;7.80;99.90
831;DHT22;397;50.564;7.272;2023-04-25T04:57:03;7.80;99.90
831;DHT22;397;50.564;7.272;2023-04-25T04:59:30;7.80;99.90
831;DHT22;397;50.564;7.272;2023-04-25T05:01:58;7.80;99.90
831;DHT22;397;50.564;7.272;2023-04-25T05:04:25;8.00;99.90
831;DHT22;397;50.564;7.272;2023-04-25T05:06:52;8.20;99.90
831;DHT22;397;50.564;7.272;2023-04-25T05:09:20;8.30;99.90
831;DHT22;397;50.564;7.272;2023-04-25T05:11:49;8.70;99.90
831;DHT22;397;50.564;7.272;2023-04-25T05:14:17;9.00;99.90
831;DHT22;397;50.564;7.272;2023-04-25T05:16:44;9.20;99.90
831;DHT22;397;50.564;7.272;2023-04-25T05:19:12;9.30;99.90
831;DHT22;397;50.564;7.272;2023-04-25T05:21:40;9.30;99.90
831;DHT22;397;50.564;7.272;2023-04-25T05:24:07;9.20;99.90
831;DHT22;397;50.564;7.272;2023-04-25T05:26:35;9.20;99.90
831;DHT22;397;50.564;7.272;2023-04-25T05:29:02;9.30;99.90
831;DHT22;397;50.564;7.272;2023-04-25T05:31:30;9.20;99.90
831;DHT22;397;50.564;7.272;2023-04-25T05:33:58;9.00;99.90
831;DHT22;397;50.564;7.272;2023-04-25T05:36:26;9.10;99.90
831;DHT22;397;50.564;7.272;2023-04-25T05:38:54;9.10;99.90
831;DHT22;397;50.564;7.272;2023-04-25T05:41:21;9.00;99.90
831;DHT22;397;50.564;7.272;2023-04-25T05:43:49;9.00;99.90
831;DHT22;397;50.564;7.272;2023-04-25T05:46:17;8.90;99.90
831;DHT22;397;50.564;7.272;2023-04-25T05:48:45;8.90;99.90
831;DHT22;397;50.564;7.272;2023-04-25T05:51:13;8.90;99.90
831;DHT22;397;50.564;7.272;2023-04-25T05:53:40;8.70;99.90
831;DHT22;397;50.564;7.272;2023-04-25T05:56:08;8.80;99.90
831;DHT22;397;50.564;7.272;2023-04-25T05:58:36;8.90;99.90
831;DHT22;397;50.564;7.272;2023-04-25T06:01:03;8.90;99.90
831;DHT22;397;50.564;7.272;2023-04-25T06:03:31;8.80;99.90
831;DHT22;397;50.564;7.272;2023-04-25T06:05:58;8.70;99.90
831;DHT22;397;50.564;7.272;2023-04-25T06:08:26;8.80;99.90
831;DHT22;397;50.564;7.272;2023-04-25T06:10:53;9.00;99.90
831;DHT22;397;50.564;7.272;2023-04-25T06:13:21;9.30;99.90
831;DHT22;397;50.564;7.272;2023-04-25T06:15:49;9.30;99.90
831;DHT22;397;50.564;7.272;2023-04-25T06:18:16;9.40;99.90
831;DHT22;397;50.564;7.272;2023-04-25T06:20:44;9.40;99.90
831;DHT22;397;50.564;7.272;2023-04-25T06:23:11;9.20;99.90
831;DHT22;397;50.564;7.272;2023-04-25T06:25:39;9.10;99.90
831;DHT22;397;50.564;7.272;2023-04-25T06:28:06;9.10;99.90
831;DHT22;397;50.564;7.272;2023-04-25T06:30:34;9.30;99.90
831;DHT22;397;50.564;7.272;2023-04-25T06:33:02;9.30;99.90
831;DHT22;397;50.564;7.272;2023-04-25T06:35:29;9.40;99.90
831;DHT22;397;50.564;7.272;2023-04-25T06:37:57;9.40;99.90
831;DHT22;397;50.564;7.272;2023-04-25T06:40:24;9.30;99.90
831;DHT22;397;50.564;7.272;2023-04-25T06:42:52;9.40;99.90
831;DHT22;397;50.564;7.272;2023-04-25T06:45:19;9.30;99.90
831;DHT22;397;50.564;7.272;2023-04-25T06:47:47;9.40;99.90
831;DHT22;397;50.564;7.272;2023-04-25T06:50:14;9.50;99.90
831;DHT22;397;50.564;7.272;2023-04-25T06:52:42;9.50;99.90
831;DHT22;397;50.564;7.272;2023-04-25T06:55:09;9.70;99.90
831;DHT22;397;50.564;7.272;2023-04-25T06:57:37;9.50;99.90
831;DHT22;397;50.564;7.272;2023-04-25T07:00:05;9.60;99.90
831;DHT22;397;50.564;7.272;2023-04-25T07:02:35;9.50;99.90
831;DHT22;397;50.564;7.272;2023-04-25T07:05:03;9.60;99.90
831;DHT22;397;50.564;7.272;2023-04-25T07:07:31;9.60;99.90
831;DHT22;397;50.564;7.272;2023-04-25T07:09:58;9.70;99.90
831;DHT22;397;50.564;7.272;2023-04-25T07:12:26;9.90;99.90
831;DHT22;397;50.564;7.272;2023-04-25T07:14:53;9.50;99.90
831;DHT22;397;50.564;7.272;2023-04-25T07:17:21;9.60;99.90
831;DHT22;397;50.564;7.272;2023-04-25T07:19:48;9.70;99.90
831;DHT22;397;50.564;7.272;2023-04-25T07:22:17;9.80;99.90
831;DHT22;397;50.564;7.272;2023-04-25T07:24:44;9.80;99.90
831;DHT22;397;50.564;7.272;2023-04-25T07:27:13;9.90;99.90
831;DHT22;397;50.564;7.272;2023-04-25T07:29:41;10.10;99.90
831;DHT22;397;50.564;7.272;2023-04-25T07:32:09;10.00;99.90
831;DHT22;397;50.564;7.272;2023-04-25T07:34:38;10.40;99.90
831;DHT22;397;50.564;7.272;2023-04-25T07:37:06;10.70;99.90
831;DHT22;397;50.564;7.272;2023-04-25T07:39:33;11.00;99.90
831;DHT22;397;50.564;7.272;2023-04-25T07:42:01;11.20;99.90
831;DHT22;397;50.564;7.272;2023-04-25T07:44:30;11.20;99.90
831;DHT22;397;50.564;7.272;2023-04-25T07:46:57;11.20;99.90
831;DHT22;397;50.564;7.272;2023-04-25T07:49:25;11.40;99.90
831;DHT22;397;50.564;7.272;2023-04-25T07:51:52;11.00;99.90
831;DHT22;397;50.564;7.272;2023-04-25T07:54:20;10.70;99.90
831;DHT22;397;50.564;7.272;2023-04-25T07:56:47;10.90;99.90
831;DHT22;397;50.564;7.272;2023-04-25T07:59:15;11.10;99.90
831;DHT22;397;50.564;7.272;2023-04-25T08:01:42;11.20;99.90
831;DHT22;397;50.564;7.272;2023-04-25T08:04:10;11.30;99.90
831;DHT22;397;50.564;7.272;2023-04-25T08:06:37;11.00;99.90
831;DHT22;397;50.564;7.272;2023-04-25T08:09:05;11.30;99.90
831;DHT22;397;50.564;7.272;2023-04-25T08:11:32;10.80;99.90
831;DHT22;397;50.564;7.272;2023-04-25T08:14:00;11.00;99.90
831;DHT22;397;50.564;7.272;2023-04-25T08:16:28;10.90;99.90
831;DHT22;397;50.564;7.272;2023-04-25T08:18:56;11.30;99.90
831;DHT22;397;50.564;7.272;2023-04-25T08:21:24;10.90;99.90
831;DHT22;397;50.564;7.272;2023-04-25T08:23:53;10.60;99.90
831;DHT22;397;50.564;7.272;2023-04-25T08:26:20;10.50;99.90
831;DHT22;397;50.564;7.272;2023-04-25T08:28:48;10.60;99.90
831;DHT22;397;50.564;7.272;2023-04-25T08:31:15;10.60;99.90
831;DHT22;397;50.564;7.272;2023-04-25T08:33:43;11.00;99.90
831;DHT22;397;50.564;7.272;2023-04-25T08:36:11;11.30;99.90
831;DHT22;397;50.564;7.272;2023-04-25T08:38:39;11.30;99.90
831;DHT22;397;50.564;7.272;2023-04-25T08:41:06;11.60;99.90
831;DHT22;397;50.564;7.272;2023-04-25T08:43:35;11.50;99.90
831;DHT22;397;50.564;7.272;2023-04-25T08:46:03;11.40;99.90
831;DHT22;397;50.564;7.272;2023-04-25T08:48:32;11.10;99.90
831;DHT22;397;50.564;7.272;2023-04-25T08:51:02;11.20;99.90
831;DHT22;397;50.564;7.272;2023-04-25T08:53:33;11.40;99.90
831;DHT22;397;50.564;7.272;2023-04-25T08:56:01;11.30;99.90
831;DHT22;397;50.564;7.272;2023-04-25T08:58:29;11.50;99.90
831;DHT22;397;50.564;7.272;2023-04-25T09:00:58;11.60;99.90
831;DHT22;397;50.564;7.272;2023-04-25T09:03:26;11.50;99.90
831;DHT22;397;50.564;7.272;2023-04-25T09:05:54;11.60;99.90
831;DHT22;397;50.564;7.272;2023-04-25T09:08:22;11.00;99.90
831;DHT22;397;50.564;7.272;2023-04-25T09:10:50;10.80;99.90
831;DHT22;397;50.564;7.272;2023-04-25T09:13:26;10.90;99.90
831;DHT22;397;50.564;7.272;2023-04-25T09:15:55;10.90;99.90
831;DHT22;397;50.564;7.272;2023-04-25T09:18:33;10.90;99.90
831;DHT22;397;50.564;7.272;2023-04-25T09:21:04;10.80;99.90
831;DHT22;397;50.564;7.272;2023-04-25T09:23:27;10.80;99.90
831;DHT22;397;50.564;7.272;2023-04-25T09:25:54;10.70;99.90
831;DHT22;397;50.564;7.272;2023-04-25T09:28:26;10.90;99.90
831;DHT22;397;50.564;7.272;2023-04-25T09:30:57;10.90;99.90
831;DHT22;397;50.564;7.272;2023-04-25T09:33:34;11.00;99.90
831;DHT22;397;50.564;7.272;2023-04-25T09:36:07;10.70;99.90
831;DHT22;397;50.564;7.272;2023-04-25T09:38:42;10.80;99.90
831;DHT22;397;50.564;7.272;2023-04-25T09:41:10;10.80;99.90
831;DHT22;397;50.564;7.272;2023-04-25T09:43:38;10.80;99.90
831;DHT22;397;50.564;7.272;2023-04-25T09:46:10;11.20;99.90
831;DHT22;397;50.564;7.272;2023-04-25T09:48:38;11.20;99.90
831;DHT22;397;50.564;7.272;2023-04-25T09:51:10;11.10;99.90
831;DHT22;397;50.564;7.272;2023-04-25T09:53:39;11.40;99.90
831;DHT22;397;50.564;7.272;2023-04-25T09:56:09;11.70;99.90
831;DHT22;397;50.564;7.272;2023-04-25T09:58:38;12.20;99.90
831;DHT22;397;50.564;7.272;2023-04-25T10:01:08;12.30;99.90
831;DHT22;397;50.564;7.272;2023-04-25T10:03:38;12.50;99.90
831;DHT22;397;50.564;7.272;2023-04-25T10:06:14;12.20;99.90
831;DHT22;397;50.564;7.272;2023-04-25T10:08:42;12.30;99.90
831;DHT22;397;50.564;7.272;2023-04-25T10:11:10;12.30;99.90
831;DHT22;397;50.564;7.272;2023-04-25T10:13:39;12.60;99.90
831;DHT22;397;50.564;7.272;2023-04-25T10:16:08;12.50;99.90
831;DHT22;397;50.564;7.272;2023-04-25T10:18:35;12.30;99.90
831;DHT22;397;50.564;7.272;2023-04-25T10:21:05;12.30;99.90
831;DHT22;397;50.564;7.272;2023-04-25T10:23:33;12.30;99.90
831;DHT22;397;50.564;7.272;2023-04-25T10:26:01;12.50;99.90
831;DHT22;397;50.564;7.272;2023-04-25T10:28:29;12.60;99.90
831;DHT22;397;50.564;7.272;2023-04-25T10:31:00;12.70;99.90
831;DHT22;397;50.564;7.272;2023-04-25T10:33:36;12.80;99.90
831;DHT22;397;50.564;7.272;2023-04-25T10:36:15;12.70;99.90
831;DHT22;397;50.564;7.272;2023-04-25T10:38:44;12.40;99.90
831;DHT22;397;50.564;7.272;2023-04-25T10:41:13;12.20;99.90
831;DHT22;397;50.564;7.272;2023-04-25T10:43:50;11.70;99.90
831;DHT22;397;50.564;7.272;2023-04-25T10:46:25;12.00;99.90
831;DHT22;397;50.564;7.272;2023-04-25T10:48:55;12.30;99.90
831;DHT22;397;50.564;7.272;2023-04-25T10:51:26;11.60;99.90
831;DHT22;397;50.564;7.272;2023-04-25T10:53:59;11.50;99.90
831;DHT22;397;50.564;7.272;2023-04-25T10:56:28;11.20;99.90
831;DHT22;397;50.564;7.272;2023-04-25T10:59:04;11.00;99.90
831;DHT22;397;50.564;7.272;2023-04-25T11:01:45;11.00;99.90
831;DHT22;397;50.564;7.272;2023-04-25T11:04:21;11.20;99.90
831;DHT22;397;50.564;7.272;2023-04-25T11:07:13;10.90;99.90
831;DHT22;397;50.564;7.272;2023-04-25T11:09:40;11.10;99.90
831;DHT22;397;50.564;7.272;2023-04-25T11:12:09;11.40;99.90
831;DHT22;397;50.564;7.272;2023-04-25T11:14:37;11.70;99.90
831;DHT22;397;50.564;7.272;2023-04-25T11:17:05;11.70;99.90
831;DHT22;397;50.564;7.272;2023-04-25T11:19:32;11.90;99.90
831;DHT22;397;50.564;7.272;2023-04-25T11:22:01;12.20;99.90
831;DHT22;397;50.564;7.272;2023-04-25T11:24:31;12.40;99.90
831;DHT22;397;50.564;7.272;2023-04-25T11:26:59;12.50;99.90
831;DHT22;397;50.564;7.272;2023-04-25T11:29:29;12.90;99.90
831;DHT22;397;50.564;7.272;2023-04-25T11:31:57;13.10;99.90
831;DHT22;397;50.564;7.272;2023-04-25T11:34:25;13.20;99.90
831;DHT22;397;50.564;7.272;2023-04-25T11:36:53;12.90;99.90
831;DHT22;397;50.564;7.272;2023-04-25T11:39:21;12.70;99.90
831;DHT22;397;50.564;7.272;2023-04-25T11:41:49;12.50;99.80
831;DHT22;397;50.564;7.272;2023-04-25T11:44:17;12.30;99.90
831;DHT22;397;50.564;7.272;2023-04-25T11:46:45;12.10;99.90
831;DHT22;397;50.564;7.272;2023-04-25T11:49:14;12.10;99.90
831;DHT22;397;50.564;7.272;2023-04-25T11:51:47;11.80;99.90
831;DHT22;397;50.564;7.272;2023-04-25T11:54:15;11.50;99.90
831;DHT22;397;50.564;7.272;2023-04-25T11:56:44;11.20;99.90
831;DHT22;397;50.564;7.272;2023-04-25T11:59:13;11.40;99.90
831;DHT22;397;50.564;7.272;2023-04-25T12:01:48;11.70;99.90
831;DHT22;397;50.564;7.272;2023-04-25T12:04:17;11.40;99.90
831;DHT22;397;50.564;7.272;2023-04-25T12:06:46;11.40;99.90
831;DHT22;397;50.564;7.272;2023-04-25T12:09:16;11.50;99.90
831;DHT22;397;50.564;7.272;2023-04-25T12:11:53;11.70;99.90
831;DHT22;397;50.564;7.272;2023-04-25T12:14:22;11.90;99.90
831;DHT22;397;50.564;7.272;2023-04-25T12:16:59;11.70;99.90
831;DHT22;397;50.564;7.272;2023-04-25T12:19:32;11.40;99.90
831;DHT22;397;50.564;7.272;2023-04-25T12:22:10;11.10;99.90
831;DHT22;397;50.564;7.272;2023-04-25T12:24:34;10.80;99.90
831;DHT22;397;50.564;7.272;2023-04-25T12:27:04;10.70;99.90
831;DHT22;397;50.564;7.272;2023-04-25T12:29:33;10.60;99.90
831;DHT22;397;50.564;7.272;2023-04-25T12:32:00;10.60;99.90
831;DHT22;397;50.564;7.272;2023-04-25T12:34:32;10.80;99.90
831;DHT22;397;50.564;7.272;2023-04-25T12:37:01;10.80;99.90
831;DHT22;397;50.564;7.272;2023-04-25T12:39:29;10.70;99.90
831;DHT22;397;50.564;7.272;2023-04-25T12:41:56;10.50;99.90
831;DHT22;397;50.564;7.272;2023-04-25T12:44:25;10.30;99.90
831;DHT22;397;50.564;7.272;2023-04-25T12:46:53;10.60;99.90
831;DHT22;397;50.564;7.272;2023-04-25T12:49:21;11.00;99.90
831;DHT22;397;50.564;7.272;2023-04-25T12:51:48;11.50;99.90
831;DHT22;397;50.564;7.272;2023-04-25T12:54:18;11.90;99.90
831;DHT22;397;50.564;7.272;2023-04-25T12:56:45;12.20;99.90
831;DHT22;397;50.564;7.272;2023-04-25T12:59:13;12.30;99.90
831;DHT22;397;50.564;7.272;2023-04-25T13:01:41;12.60;99.90
831;DHT22;397;50.564;7.272;2023-04-25T13:04:09;12.80;99.90
831;DHT22;397;50.564;7.272;2023-04-25T13:06:36;13.00;99.90
831;DHT22;397;50.564;7.272;2023-04-25T13:09:04;13.00;99.90
831;DHT22;397;50.564;7.272;2023-04-25T13:11:33;13.10;99.90
831;DHT22;397;50.564;7.272;2023-04-25T13:14:01;13.10;99.90
831;DHT22;397;50.564;7.272;2023-04-25T13:16:28;13.10;99.90
831;DHT22;397;50.564;7.272;2023-04-25T13:18:56;13.00;99.10
831;DHT22;397;50.564;7.272;2023-04-25T13:21:23;12.60;99.90
831;DHT22;397;50.564;7.272;2023-04-25T13:23:51;12.80;99.90
831;DHT22;397;50.564;7.272;2023-04-25T13:26:19;12.80;99.90
831;DHT22;397;50.564;7.272;2023-04-25T13:28:46;12.70;98.80
831;DHT22;397;50.564;7.272;2023-04-25T13:31:14;12.60;97.50
831;DHT22;397;50.564;7.272;2023-04-25T13:33:41;12.60;98.40
831;DHT22;397;50.564;7.272;2023-04-25T13:36:09;12.40;98.60
831;DHT22;397;50.564;7.272;2023-04-25T13:38:37;12.30;98.10
831;DHT22;397;50.564;7.272;2023-04-25T13:41:06;12.30;98.50
831;DHT22;397;50.564;7.272;2023-04-25T13:43:33;12.20;97.00
831;DHT22;397;50.564;7.272;2023-04-25T13:46:01;12.20;97.50
831;DHT22;397;50.564;7.272;2023-04-25T13:48:28;12.40;98.10
831;DHT22;397;50.564;7.272;2023-04-25T13:50:56;12.50;98.00
831;DHT22;397;50.564;7.272;2023-04-25T13:53:24;12.70;98.60
831;DHT22;397;50.564;7.272;2023-04-25T13:55:51;12.70;97.60
831;DHT22;397;50.564;7.272;2023-04-25T13:58:20;12.90;97.00
831;DHT22;397;50.564;7.272;2023-04-25T14:00:47;12.90;97.20
831;DHT22;397;50.564;7.272;2023-04-25T14:03:14;12.80;96.40
831;DHT22;397;50.564;7.272;2023-04-25T14:05:42;12.60;97.40
831;DHT22;397;50.564;7.272;2023-04-25T14:08:10;12.60;98.70
831;DHT22;397;50.564;7.272;2023-04-25T14:10:37;12.40;98.00
831;DHT22;397;50.564;7.272;2023-04-25T14:13:05;12.00;98.20
831;DHT22;397;50.564;7.272;2023-04-25T14:15:33;11.70;99.30
831;DHT22;397;50.564;7.272;2023-04-25T14:18:02;11.70;99.90
831;DHT22;397;50.564;7.272;2023-04-25T14:20:29;11.60;99.90
831;DHT22;397;50.564;7.272;2023-04-25T14:22:58;11.60;99.90
831;DHT22;397;50.564;7.272;2023-04-25T14:25:27;11.60;99.90
831;DHT22;397;50.564;7.272;2023-04-25T14:27:55;11.60;99.90
831;DHT22;397;50.564;7.272;2023-04-25T14:30:23;11.50;99.90
831;DHT22;397;50.564;7.272;2023-04-25T14:32:50;11.50;99.90
831;DHT22;397;50.564;7.272;2023-04-25T14:35:18;11.40;99.70
831;DHT22;397;50.564;7.272;2023-04-25T14:37:46;11.30;99.90
831;DHT22;397;50.564;7.272;2023-04-25T14:40:14;11.20;98.70
831;DHT22;397;50.564;7.272;2023-04-25T14:42:43;11.20;99.60
831;DHT22;397;50.564;7.272;2023-04-25T14:45:11;11.20;99.90
831;DHT22;397;50.564;7.272;2023-04-25T14:47:38;11.20;99.40
831;DHT22;397;50.564;7.272;2023-04-25T14:50:07;11.50;99.90
831;DHT22;397;50.564;7.272;2023-04-25T14:52:35;11.50;99.90
831;DHT22;397;50.564;7.272;2023-04-25T14:55:03;11.50;99.80
831;DHT22;397;50.564;7.272;2023-04-25T14:57:34;11.50;99.40
831;DHT22;397;50.564;7.272;2023-04-25T15:00:03;11.70;99.90
831;DHT22;397;50.564;7.272;2023-04-25T15:02:32;11.90;99.90
831;DHT22;397;50.564;7.272;2023-04-25T15:05:00;12.00;99.70
831;DHT22;397;50.564;7.272;2023-04-25T15:07:29;12.10;98.00
831;DHT22;397;50.564;7.272;2023-04-25T15:09:56;12.00;97.40
831;DHT22;397;50.564;7.272;2023-04-25T15:12:24;12.20;97.50
831;DHT22;397;50.564;7.272;2023-04-25T15:14:53;12.30;96.90
831;DHT22;397;50.564;7.272;2023-04-25T15:17:21;12.20;95.10
831;DHT22;397;50.564;7.272;2023-04-25T15:19:49;12.40;97.40
831;DHT22;397;50.564;7.272;2023-04-25T15:22:16;12.50;97.20
831;DHT22;397;50.564;7.272;2023-04-25T15:24:44;12.60;97.20
831;DHT22;397;50.564;7.272;2023-04-25T15:27:12;12.50;96.70
831;DHT22;397;50.564;7.272;2023-04-25T15:29:40;12.30;95.10
831;DHT22;397;50.564;7.272;2023-04-25T15:32:08;12.30;95.80
831;DHT22;397;50.564;7.272;2023-04-25T15:34:35;12.30;95.40
831;DHT22;397;50.564;7.272;2023-04-25T15:37:03;12.00;93.50
831;DHT22;397;50.564;7.272;2023-04-25T15:39:31;11.80;94.00
831;DHT22;397;50.564;7.272;2023-04-25T15:41:58;11.80;95.10
831;DHT22;397;50.564;7.272;2023-04-25T15:44:27;11.70;95.10
831;DHT22;397;50.564;7.272;2023-04-25T15:46:55;11.70;95.50
831;DHT22;397;50.564;7.272;2023-04-25T15:49:22;11.70;95.00
831;DHT22;397;50.564;7.272;2023-04-25T15:51:50;11.60;94.20
831;DHT22;397;50.564;7.272;2023-04-25T15:54:18;11.50;94.30
831;DHT22;397;50.564;7.272;2023-04-25T15:56:46;11.50;93.90
831;DHT22;397;50.564;7.272;2023-04-25T15:59:13;11.50;94.60
831;DHT22;397;50.564;7.272;2023-04-25T16:01:41;11.60;95.00
831;DHT22;397;50.564;7.272;2023-04-25T16:04:08;11.60;94.30
831;DHT22;397;50.564;7.272;2023-04-25T16:06:36;11.80;95.00
831;DHT22;397;50.564;7.272;2023-04-25T16:09:04;12.00;95.60
831;DHT22;397;50.564;7.272;2023-04-25T16:11:32;12.00;94.50
831;DHT22;397;50.564;7.272;2023-04-25T16:13:59;11.90;93.40
831;DHT22;397;50.564;7.272;2023-04-25T16:16:27;11.90;93.40
831;DHT22;397;50.564;7.272;2023-04-25T16:18:54;12.00;93.50
831;DHT22;397;50.564;7.272;2023-04-25T16:21:22;11.70;91.90
831;DHT22;397;50.564;7.272;2023-04-25T16:23:49;11.50;91.80
831;DHT22;397;50.564;7.272;2023-04-25T16:26:17;11.40;91.40
831;DHT22;397;50.564;7.272;2023-04-25T16:28:44;11.50;92.60
831;DHT22;397;50.564;7.272;2023-04-25T16:31:12;11.50;92.40
831;DHT22;397;50.564;7.272;2023-04-25T16:33:40;11.40;92.40
831;DHT22;397;50.564;7.272;2023-04-25T16:36:07;11.20;91.70
831;DHT22;397;50.564;7.272;2023-04-25T16:38:35;11.20;91.40
831;DHT22;397;50.564;7.272;2023-04-25T16:41:06;11.20;91.80
831;DHT22;397;50.564;7.272;2023-04-25T16:43:34;11.20;91.40
831;DHT22;397;50.564;7.272;2023-04-25T16:46:01;11.20;92.00
831;DHT22;397;50.564;7.272;2023-04-25T16:48:29;11.30;91.90
831;DHT22;397;50.564;7.272;2023-04-25T16:50:56;11.40;92.00
831;DHT22;397;50.564;7.272;2023-04-25T16:53:24;11.40;92.20
831;DHT22;397;50.564;7.272;2023-04-25T16:55:52;11.40;91.90
831;DHT22;397;50.564;7.272;2023-04-25T16:58:20;11.30;91.20
831;DHT22;397;50.564;7.272;2023-04-25T17:00:48;11.40;91.90
831;DHT22;397;50.564;7.272;2023-04-25T17:03:16;11.40;92.10
831;DHT22;397;50.564;7.272;2023-04-25T17:05:43;11.40;92.10
831;DHT22;397;50.564;7.272;2023-04-25T17:08:11;11.40;92.40
831;DHT22;397;50.564;7.272;2023-04-25T17:10:38;11.40;93.00
831;DHT22;397;50.564;7.272;2023-04-25T17:13:06;11.50;93.40
831;DHT22;397;50.564;7.272;2023-04-25T17:15:33;11.50;93.80
831;DHT22;397;50.564;7.272;2023-04-25T17:18:01;11.50;94.10
831;DHT22;397;50.564;7.272;2023-04-25T17:20:28;11.40;94.10
831;DHT22;397;50.564;7.272;2023-04-25T17:22:56;11.30;94.00
831;DHT22;397;50.564;7.272;2023-04-25T17:25:23;11.40;94.60
831;DHT22;397;50.564;7.272;2023-04-25T17:27:51;11.30;93.40
831;DHT22;397;50.564;7.272;2023-04-25T17:30:18;11.20;94.20
831;DHT22;397;50.564;7.272;2023-04-25T17:32:46;11.10;93.80
831;DHT22;397;50.564;7.272;2023-04-25T17:35:13;11.20;94.50
831;DHT22;397;50.564;7.272;2023-04-25T17:37:42;11.10;94.80
831;DHT22;397;50.564;7.272;2023-04-25T17:40:11;11.00;94.90
831;DHT22;397;50.564;7.272;2023-04-25T17:42:39;11.00;95.50